sensor_id;sensor_type;location;lat;lon;timestamp;P1;durP1;ratioP1;P2;durP2;ratioP2
64633;SDS011;51043;52.406;9.690;2023-03-14T00:02:04;5.37;;;2.20;;
64633;SDS011;51043;52.406;9.690;2023-03-14T00:04:31;3.47;;;2.03;;
64633;SDS011;51043;52.406;9.690;2023-03-14T00:06:58;5.47;;;2.10;;
64633;SDS011;51043;52.406;9.690;2023-03-14T00:09:24;5.20;;;2.07;;
64633;SDS011;51043;52.406;9.690;2023-03-14T00:11:53;6.57;;;2.30;;
64633;SDS011;51043;52.406;9.690;2023-03-14T00:14:20;8.80;;;2.33;;
64633;SDS011;51043;52.406;9.690;2023-03-14T00:16:47;3.73;;;1.70;;
64633;SDS011;51043;52.406;9.690;2023-03-14T00:19:13;6.97;;;2.10;;
64633;SDS011;51043;52.406;9.690;2023-03-14T00:21:40;5.40;;;2.13;;
64633;SDS011;51043;52.406;9.690;2023-03-14T00:24:07;5.17;;;2.00;;
64633;SDS011;51043;52.406;9.690;2023-03-14T00:26:34;6.13;;;2.40;;
64633;SDS011;51043;52.406;9.690;2023-03-14T00:29:01;3.20;;;1.63;;
64633;SDS011;51043;52.406;9.690;2023-03-14T00:31:29;6.23;;;2.20;;
64633;SDS011;51043;52.406;9.690;2023-03-14T00:33:56;6.13;;;1.93;;
64633;SDS011;51043;52.406;9.690;2023-03-14T00:36:23;3.10;;;1.70;;
64633;SDS011;51043;52.406;9.690;2023-03-14T00:38:51;5.47;;;1.80;;
64633;SDS011;51043;52.406;9.690;2023-03-14T00:41:19;8.43;;;2.27;;
64633;SDS011;51043;52.406;9.690;2023-03-14T00:43:50;5.60;;;2.10;;
64633;SDS011;51043;52.406;9.690;2023-03-14T00:46:18;2.40;;;1.63;;
64633;SDS011;51043;52.406;9.690;2023-03-14T00:48:45;3.90;;;1.70;;
64633;SDS011;51043;52.406;9.690;2023-03-14T00:51:13;2.60;;;1.50;;
64633;SDS011;51043;52.406;9.690;2023-03-14T00:53:42;5.03;;;1.80;;
64633;SDS011;51043;52.406;9.690;2023-03-14T00:56:10;5.27;;;1.80;;
64633;SDS011;51043;52.406;9.690;2023-03-14T00:58:38;3.97;;;1.90;;
64633;SDS011;51043;52.406;9.690;2023-03-14T01:01:06;4.67;;;1.70;;
64633;SDS011;51043;52.406;9.690;2023-03-14T01:03:34;5.37;;;1.83;;
64633;SDS011;51043;52.406;9.690;2023-03-14T01:08:41;7.43;;;2.00;;
64633;SDS011;51043;52.406;9.690;2023-03-14T01:11:09;5.80;;;1.90;;
64633;SDS011;51043;52.406;9.690;2023-03-14T01:13:38;3.73;;;1.90;;
64633;SDS011;51043;52.406;9.690;2023-03-14T01:16:06;3.63;;;1.80;;
64633;SDS011;51043;52.406;9.690;2023-03-14T01:18:36;5.60;;;2.20;;
64633;SDS011;51043;52.406;9.690;2023-03-14T01:21:09;4.17;;;1.70;;
64633;SDS011;51043;52.406;9.690;2023-03-14T01:23:38;5.87;;;2.00;;
64633;SDS011;51043;52.406;9.690;2023-03-14T01:26:08;4.97;;;1.60;;
64633;SDS011;51043;52.406;9.690;2023-03-14T01:28:37;5.47;;;1.87;;
64633;SDS011;51043;52.406;9.690;2023-03-14T01:31:05;5.97;;;1.93;;
64633;SDS011;51043;52.406;9.690;2023-03-14T01:33:33;6.03;;;1.80;;
64633;SDS011;51043;52.406;9.690;2023-03-14T01:36:00;8.23;;;2.07;;
64633;SDS011;51043;52.406;9.690;2023-03-14T01:38:29;5.03;;;1.87;;
64633;SDS011;51043;52.406;9.690;2023-03-14T01:40:57;3.97;;;1.57;;
64633;SDS011;51043;52.406;9.690;2023-03-14T01:43:25;5.63;;;1.87;;
64633;SDS011;51043;52.406;9.690;2023-03-14T01:48:31;5.47;;;2.30;;
64633;SDS011;51043;52.406;9.690;2023-03-14T01:51:08;6.97;;;2.40;;
64633;SDS011;51043;52.406;9.690;2023-03-14T01:53:38;8.53;;;2.13;;
64633;SDS011;51043;52.406;9.690;2023-03-14T01:56:08;4.97;;;2.00;;
64633;SDS011;51043;52.406;9.690;2023-03-14T01:58:37;6.07;;;1.97;;
64633;SDS011;51043;52.406;9.690;2023-03-14T02:01:07;6.93;;;2.10;;
64633;SDS011;51043;52.406;9.690;2023-03-14T02:03:38;4.67;;;2.03;;
64633;SDS011;51043;52.406;9.690;2023-03-14T02:06:11;8.43;;;2.10;;
64633;SDS011;51043;52.406;9.690;2023-03-14T02:08:45;6.40;;;2.07;;
64633;SDS011;51043;52.406;9.690;2023-03-14T02:11:18;6.73;;;2.17;;
64633;SDS011;51043;52.406;9.690;2023-03-14T02:13:57;7.43;;;2.07;;
64633;SDS011;51043;52.406;9.690;2023-03-14T02:16:44;9.17;;;2.33;;
64633;SDS011;51043;52.406;9.690;2023-03-14T02:22:37;4.60;;;1.90;;
64633;SDS011;51043;52.406;9.690;2023-03-14T02:25:08;7.27;;;2.57;;
64633;SDS011;51043;52.406;9.690;2023-03-14T02:28:00;4.33;;;1.90;;
64633;SDS011;51043;52.406;9.690;2023-03-14T02:30:28;5.87;;;1.60;;
64633;SDS011;51043;52.406;9.690;2023-03-14T02:33:03;4.20;;;1.83;;
64633;SDS011;51043;52.406;9.690;2023-03-14T02:35:57;4.20;;;1.67;;
64633;SDS011;51043;52.406;9.690;2023-03-14T02:38:26;3.97;;;1.67;;
64633;SDS011;51043;52.406;9.690;2023-03-14T02:41:02;5.70;;;1.97;;
64633;SDS011;51043;52.406;9.690;2023-03-14T02:43:33;4.90;;;1.60;;
64633;SDS011;51043;52.406;9.690;2023-03-14T02:46:03;3.77;;;1.77;;
64633;SDS011;51043;52.406;9.690;2023-03-14T02:48:35;5.37;;;1.70;;
64633;SDS011;51043;52.406;9.690;2023-03-14T02:51:29;3.80;;;1.83;;
64633;SDS011;51043;52.406;9.690;2023-03-14T02:53:57;5.07;;;1.90;;
64633;SDS011;51043;52.406;9.690;2023-03-14T02:56:24;9.93;;;2.23;;
64633;SDS011;51043;52.406;9.690;2023-03-14T02:58:51;3.53;;;1.90;;
64633;SDS011;51043;52.406;9.690;2023-03-14T03:01:26;6.30;;;2.00;;
64633;SDS011;51043;52.406;9.690;2023-03-14T03:03:53;4.60;;;1.63;;
64633;SDS011;51043;52.406;9.690;2023-03-14T03:06:20;5.20;;;1.77;;
64633;SDS011;51043;52.406;9.690;2023-03-14T03:08:47;5.37;;;2.07;;
64633;SDS011;51043;52.406;9.690;2023-03-14T03:11:14;4.00;;;2.00;;
64633;SDS011;51043;52.406;9.690;2023-03-14T03:13:41;5.30;;;1.90;;
64633;SDS011;51043;52.406;9.690;2023-03-14T03:16:08;4.97;;;1.87;;
64633;SDS011;51043;52.406;9.690;2023-03-14T03:18:35;5.23;;;1.90;;
64633;SDS011;51043;52.406;9.690;2023-03-14T03:21:03;5.20;;;1.97;;
64633;SDS011;51043;52.406;9.690;2023-03-14T03:23:31;3.90;;;1.73;;
64633;SDS011;51043;52.406;9.690;2023-03-14T03:25:58;4.87;;;1.90;;
64633;SDS011;51043;52.406;9.690;2023-03-14T03:28:25;7.83;;;1.93;;
64633;SDS011;51043;52.406;9.690;2023-03-14T03:30:53;7.43;;;1.90;;
64633;SDS011;51043;52.406;9.690;2023-03-14T03:33:20;6.13;;;2.00;;
64633;SDS011;51043;52.406;9.690;2023-03-14T03:35:50;4.77;;;1.47;;
64633;SDS011;51043;52.406;9.690;2023-03-14T03:38:25;6.00;;;1.97;;
64633;SDS011;51043;52.406;9.690;2023-03-14T03:40:53;5.53;;;1.90;;
64633;SDS011;51043;52.406;9.690;2023-03-14T03:43:23;7.50;;;2.13;;
64633;SDS011;51043;52.406;9.690;2023-03-14T03:45:50;3.10;;;1.33;;
64633;SDS011;51043;52.406;9.690;2023-03-14T03:48:19;6.57;;;1.90;;
64633;SDS011;51043;52.406;9.690;2023-03-14T03:50:46;5.77;;;1.80;;
64633;SDS011;51043;52.406;9.690;2023-03-14T03:53:19;4.13;;;1.50;;
64633;SDS011;51043;52.406;9.690;2023-03-14T03:55:58;4.70;;;1.63;;
64633;SDS011;51043;52.406;9.690;2023-03-14T03:58:25;4.00;;;1.60;;
64633;SDS011;51043;52.406;9.690;2023-03-14T04:00:52;4.40;;;1.50;;
64633;SDS011;51043;52.406;9.690;2023-03-14T04:03:20;4.87;;;1.47;;
64633;SDS011;51043;52.406;9.690;2023-03-14T04:05:57;3.80;;;1.30;;
64633;SDS011;51043;52.406;9.690;2023-03-14T04:08:27;2.80;;;1.90;;
64633;SDS011;51043;52.406;9.690;2023-03-14T04:10:55;4.53;;;1.50;;
64633;SDS011;51043;52.406;9.690;2023-03-14T04:13:42;3.47;;;1.37;;
64633;SDS011;51043;52.406;9.690;2023-03-14T04:16:19;3.77;;;1.33;;
64633;SDS011;51043;52.406;9.690;2023-03-14T04:18:52;4.00;;;1.43;;
64633;SDS011;51043;52.406;9.690;2023-03-14T04:21:21;3.63;;;1.33;;
64633;SDS011;51043;52.406;9.690;2023-03-14T04:23:53;2.60;;;1.00;;
64633;SDS011;51043;52.406;9.690;2023-03-14T04:26:20;2.73;;;1.20;;
64633;SDS011;51043;52.406;9.690;2023-03-14T04:28:47;3.43;;;1.30;;
64633;SDS011;51043;52.406;9.690;2023-03-14T04:31:19;4.63;;;1.30;;
64633;SDS011;51043;52.406;9.690;2023-03-14T04:33:48;1.60;;;1.10;;
64633;SDS011;51043;52.406;9.690;2023-03-14T04:36:20;4.93;;;1.20;;
64633;SDS011;51043;52.406;9.690;2023-03-14T04:38:47;3.07;;;1.20;;
64633;SDS011;51043;52.406;9.690;2023-03-14T04:41:18;1.93;;;1.10;;
64633;SDS011;51043;52.406;9.690;2023-03-14T04:43:45;3.33;;;1.43;;
64633;SDS011;51043;52.406;9.690;2023-03-14T04:46:13;2.17;;;1.20;;
64633;SDS011;51043;52.406;9.690;2023-03-14T04:48:40;7.70;;;1.70;;
64633;SDS011;51043;52.406;9.690;2023-03-14T04:51:07;2.97;;;1.20;;
64633;SDS011;51043;52.406;9.690;2023-03-14T04:53:35;3.00;;;1.30;;
64633;SDS011;51043;52.406;9.690;2023-03-14T04:56:06;4.73;;;1.80;;
64633;SDS011;51043;52.406;9.690;2023-03-14T04:58:36;1.93;;;1.30;;
64633;SDS011;51043;52.406;9.690;2023-03-14T05:01:05;3.70;;;1.20;;
64633;SDS011;51043;52.406;9.690;2023-03-14T05:03:51;2.67;;;1.17;;
64633;SDS011;51043;52.406;9.690;2023-03-14T05:06:38;4.13;;;1.40;;
64633;SDS011;51043;52.406;9.690;2023-03-14T05:09:40;3.80;;;1.60;;
64633;SDS011;51043;52.406;9.690;2023-03-14T05:12:22;1.83;;;1.13;;
64633;SDS011;51043;52.406;9.690;2023-03-14T05:15:08;4.90;;;1.40;;
64633;SDS011;51043;52.406;9.690;2023-03-14T05:17:56;3.47;;;1.07;;
64633;SDS011;51043;52.406;9.690;2023-03-14T05:20:33;1.97;;;1.30;;
64633;SDS011;51043;52.406;9.690;2023-03-14T05:23:32;3.27;;;1.40;;
64633;SDS011;51043;52.406;9.690;2023-03-14T05:26:28;3.90;;;1.63;;
64633;SDS011;51043;52.406;9.690;2023-03-14T05:29:14;3.17;;;1.47;;
64633;SDS011;51043;52.406;9.690;2023-03-14T05:32:04;2.77;;;1.30;;
64633;SDS011;51043;52.406;9.690;2023-03-14T05:35:04;3.93;;;1.30;;
64633;SDS011;51043;52.406;9.690;2023-03-14T05:38:06;4.87;;;1.63;;
64633;SDS011;51043;52.406;9.690;2023-03-14T05:40:52;6.17;;;1.60;;
64633;SDS011;51043;52.406;9.690;2023-03-14T05:43:37;3.83;;;1.40;;
64633;SDS011;51043;52.406;9.690;2023-03-14T05:46:05;5.27;;;1.47;;
64633;SDS011;51043;52.406;9.690;2023-03-14T05:48:47;6.87;;;2.07;;
64633;SDS011;51043;52.406;9.690;2023-03-14T05:51:41;6.63;;;1.90;;
64633;SDS011;51043;52.406;9.690;2023-03-14T05:54:31;11.50;;;2.40;;
64633;SDS011;51043;52.406;9.690;2023-03-14T05:57:27;9.23;;;1.70;;
64633;SDS011;51043;52.406;9.690;2023-03-14T06:00:20;6.33;;;2.00;;
64633;SDS011;51043;52.406;9.690;2023-03-14T06:03:03;10.27;;;2.47;;
64633;SDS011;51043;52.406;9.690;2023-03-14T06:05:35;5.50;;;1.80;;
64633;SDS011;51043;52.406;9.690;2023-03-14T06:08:02;7.43;;;2.70;;
64633;SDS011;51043;52.406;9.690;2023-03-14T06:10:30;7.87;;;2.47;;
64633;SDS011;51043;52.406;9.690;2023-03-14T06:12:58;5.60;;;2.10;;
64633;SDS011;51043;52.406;9.690;2023-03-14T06:15:25;7.20;;;2.10;;
64633;SDS011;51043;52.406;9.690;2023-03-14T06:17:54;6.67;;;2.47;;
64633;SDS011;51043;52.406;9.690;2023-03-14T06:20:22;6.17;;;2.03;;
64633;SDS011;51043;52.406;9.690;2023-03-14T06:22:49;4.53;;;1.67;;
64633;SDS011;51043;52.406;9.690;2023-03-14T06:25:17;7.90;;;1.83;;
64633;SDS011;51043;52.406;9.690;2023-03-14T06:27:46;8.53;;;1.73;;
64633;SDS011;51043;52.406;9.690;2023-03-14T06:30:14;5.23;;;1.70;;
64633;SDS011;51043;52.406;9.690;2023-03-14T06:32:41;5.53;;;2.00;;
64633;SDS011;51043;52.406;9.690;2023-03-14T06:35:11;3.73;;;1.70;;
64633;SDS011;51043;52.406;9.690;2023-03-14T06:37:41;8.87;;;2.10;;
64633;SDS011;51043;52.406;9.690;2023-03-14T06:40:11;6.30;;;1.93;;
64633;SDS011;51043;52.406;9.690;2023-03-14T06:42:56;5.70;;;2.20;;
64633;SDS011;51043;52.406;9.690;2023-03-14T06:45:25;3.90;;;1.77;;
64633;SDS011;51043;52.406;9.690;2023-03-14T06:47:53;3.70;;;1.50;;
64633;SDS011;51043;52.406;9.690;2023-03-14T06:50:25;4.17;;;1.70;;
64633;SDS011;51043;52.406;9.690;2023-03-14T06:52:52;5.53;;;1.63;;
64633;SDS011;51043;52.406;9.690;2023-03-14T06:55:23;7.50;;;1.50;;
64633;SDS011;51043;52.406;9.690;2023-03-14T06:57:50;3.50;;;1.40;;
64633;SDS011;51043;52.406;9.690;2023-03-14T07:00:17;7.00;;;1.50;;
64633;SDS011;51043;52.406;9.690;2023-03-14T07:02:45;6.30;;;1.20;;
64633;SDS011;51043;52.406;9.690;2023-03-14T07:05:28;2.93;;;1.30;;
64633;SDS011;51043;52.406;9.690;2023-03-14T07:07:55;3.23;;;1.47;;
64633;SDS011;51043;52.406;9.690;2023-03-14T07:10:22;2.90;;;1.10;;
64633;SDS011;51043;52.406;9.690;2023-03-14T07:12:54;3.07;;;1.10;;
64633;SDS011;51043;52.406;9.690;2023-03-14T07:15:24;2.37;;;1.20;;
64633;SDS011;51043;52.406;9.690;2023-03-14T07:17:56;2.70;;;1.27;;
64633;SDS011;51043;52.406;9.690;2023-03-14T07:20:24;2.37;;;0.97;;
64633;SDS011;51043;52.406;9.690;2023-03-14T07:22:52;2.30;;;1.20;;
64633;SDS011;51043;52.406;9.690;2023-03-14T07:25:29;2.13;;;1.10;;
64633;SDS011;51043;52.406;9.690;2023-03-14T07:27:57;3.03;;;1.27;;
64633;SDS011;51043;52.406;9.690;2023-03-14T07:30:24;2.00;;;1.00;;
64633;SDS011;51043;52.406;9.690;2023-03-14T07:32:54;1.30;;;0.87;;
64633;SDS011;51043;52.406;9.690;2023-03-14T07:35:23;1.93;;;0.80;;
64633;SDS011;51043;52.406;9.690;2023-03-14T07:37:50;0.87;;;0.77;;
64633;SDS011;51043;52.406;9.690;2023-03-14T07:40:24;2.60;;;0.97;;
64633;SDS011;51043;52.406;9.690;2023-03-14T07:42:51;2.47;;;1.10;;
64633;SDS011;51043;52.406;9.690;2023-03-14T07:45:27;0.80;;;0.60;;
64633;SDS011;51043;52.406;9.690;2023-03-14T07:47:54;1.43;;;0.90;;
64633;SDS011;51043;52.406;9.690;2023-03-14T07:50:24;2.43;;;1.00;;
64633;SDS011;51043;52.406;9.690;2023-03-14T07:52:53;2.00;;;1.00;;
64633;SDS011;51043;52.406;9.690;2023-03-14T07:55:20;2.83;;;1.00;;
64633;SDS011;51043;52.406;9.690;2023-03-14T07:57:47;1.53;;;0.90;;
64633;SDS011;51043;52.406;9.690;2023-03-14T08:00:14;1.73;;;1.40;;
64633;SDS011;51043;52.406;9.690;2023-03-14T08:02:41;1.70;;;0.67;;
64633;SDS011;51043;52.406;9.690;2023-03-14T08:05:08;2.57;;;1.10;;
64633;SDS011;51043;52.406;9.690;2023-03-14T08:07:36;2.37;;;1.40;;
64633;SDS011;51043;52.406;9.690;2023-03-14T08:10:03;2.53;;;0.93;;
64633;SDS011;51043;52.406;9.690;2023-03-14T08:12:31;0.67;;;0.67;;
64633;SDS011;51043;52.406;9.690;2023-03-14T08:14:58;1.47;;;0.93;;
64633;SDS011;51043;52.406;9.690;2023-03-14T08:17:26;1.10;;;0.77;;
64633;SDS011;51043;52.406;9.690;2023-03-14T08:19:54;2.53;;;0.97;;
64633;SDS011;51043;52.406;9.690;2023-03-14T08:22:21;0.60;;;0.60;;
64633;SDS011;51043;52.406;9.690;2023-03-14T08:24:47;2.80;;;0.90;;
64633;SDS011;51043;52.406;9.690;2023-03-14T08:27:14;1.63;;;0.90;;
64633;SDS011;51043;52.406;9.690;2023-03-14T08:29:41;1.57;;;0.90;;
64633;SDS011;51043;52.406;9.690;2023-03-14T08:32:08;3.13;;;0.83;;
64633;SDS011;51043;52.406;9.690;2023-03-14T08:34:35;2.70;;;1.00;;
64633;SDS011;51043;52.406;9.690;2023-03-14T08:37:03;2.20;;;0.80;;
64633;SDS011;51043;52.406;9.690;2023-03-14T08:39:44;1.57;;;1.00;;
64633;SDS011;51043;52.406;9.690;2023-03-14T08:42:11;1.40;;;0.80;;
64633;SDS011;51043;52.406;9.690;2023-03-14T08:44:38;2.30;;;0.60;;
64633;SDS011;51043;52.406;9.690;2023-03-14T08:47:05;1.73;;;0.73;;
64633;SDS011;51043;52.406;9.690;2023-03-14T08:49:32;2.53;;;0.73;;
64633;SDS011;51043;52.406;9.690;2023-03-14T08:52:00;1.13;;;0.70;;
64633;SDS011;51043;52.406;9.690;2023-03-14T08:54:28;1.30;;;0.90;;
64633;SDS011;51043;52.406;9.690;2023-03-14T08:56:59;0.87;;;0.77;;
64633;SDS011;51043;52.406;9.690;2023-03-14T08:59:26;1.03;;;0.80;;
64633;SDS011;51043;52.406;9.690;2023-03-14T09:01:53;0.70;;;0.70;;
64633;SDS011;51043;52.406;9.690;2023-03-14T09:04:20;1.90;;;0.90;;
64633;SDS011;51043;52.406;9.690;2023-03-14T09:06:48;1.60;;;0.80;;
64633;SDS011;51043;52.406;9.690;2023-03-14T09:09:14;1.43;;;0.90;;
64633;SDS011;51043;52.406;9.690;2023-03-14T09:11:41;3.93;;;0.80;;
64633;SDS011;51043;52.406;9.690;2023-03-14T09:14:08;2.93;;;1.00;;
64633;SDS011;51043;52.406;9.690;2023-03-14T09:16:35;1.07;;;0.80;;
64633;SDS011;51043;52.406;9.690;2023-03-14T09:19:02;0.70;;;0.70;;
64633;SDS011;51043;52.406;9.690;2023-03-14T09:21:29;1.00;;;0.90;;
64633;SDS011;51043;52.406;9.690;2023-03-14T09:23:56;2.80;;;1.00;;
64633;SDS011;51043;52.406;9.690;2023-03-14T09:26:22;1.67;;;1.10;;
64633;SDS011;51043;52.406;9.690;2023-03-14T09:28:49;0.90;;;0.90;;
64633;SDS011;51043;52.406;9.690;2023-03-14T09:31:16;2.00;;;1.17;;
64633;SDS011;51043;52.406;9.690;2023-03-14T09:33:43;1.30;;;0.90;;
64633;SDS011;51043;52.406;9.690;2023-03-14T09:36:10;1.17;;;0.87;;
64633;SDS011;51043;52.406;9.690;2023-03-14T09:38:37;1.13;;;1.03;;
64633;SDS011;51043;52.406;9.690;2023-03-14T09:43:58;1.83;;;1.33;;
64633;SDS011;51043;52.406;9.690;2023-03-14T09:46:26;1.30;;;0.87;;
64633;SDS011;51043;52.406;9.690;2023-03-14T09:48:55;0.90;;;0.80;;
64633;SDS011;51043;52.406;9.690;2023-03-14T09:51:21;2.27;;;1.30;;
64633;SDS011;51043;52.406;9.690;2023-03-14T09:53:50;0.70;;;0.70;;
64633;SDS011;51043;52.406;9.690;2023-03-14T09:56:22;1.17;;;1.00;;
64633;SDS011;51043;52.406;9.690;2023-03-14T09:59:00;1.20;;;1.03;;
64633;SDS011;51043;52.406;9.690;2023-03-14T10:01:30;1.63;;;1.27;;
64633;SDS011;51043;52.406;9.690;2023-03-14T10:04:17;1.90;;;0.80;;
64633;SDS011;51043;52.406;9.690;2023-03-14T10:06:49;1.73;;;0.90;;
64633;SDS011;51043;52.406;9.690;2023-03-14T10:09:20;1.17;;;1.00;;
64633;SDS011;51043;52.406;9.690;2023-03-14T10:11:53;1.10;;;0.80;;
64633;SDS011;51043;52.406;9.690;2023-03-14T10:14:35;1.20;;;0.90;;
64633;SDS011;51043;52.406;9.690;2023-03-14T10:17:04;1.73;;;0.90;;
64633;SDS011;51043;52.406;9.690;2023-03-14T10:19:33;1.87;;;1.00;;
64633;SDS011;51043;52.406;9.690;2023-03-14T10:22:03;1.67;;;0.90;;
64633;SDS011;51043;52.406;9.690;2023-03-14T10:24:33;3.23;;;1.10;;
64633;SDS011;51043;52.406;9.690;2023-03-14T10:27:02;1.10;;;1.00;;
64633;SDS011;51043;52.406;9.690;2023-03-14T10:29:33;1.30;;;1.13;;
64633;SDS011;51043;52.406;9.690;2023-03-14T10:32:04;1.50;;;1.00;;
64633;SDS011;51043;52.406;9.690;2023-03-14T10:34:35;1.13;;;1.00;;
64633;SDS011;51043;52.406;9.690;2023-03-14T10:37:23;1.77;;;1.50;;
64633;SDS011;51043;52.406;9.690;2023-03-14T10:39:53;2.30;;;1.10;;
64633;SDS011;51043;52.406;9.690;2023-03-14T10:42:31;1.43;;;1.10;;
64633;SDS011;51043;52.406;9.690;2023-03-14T10:45:09;1.17;;;1.13;;
64633;SDS011;51043;52.406;9.690;2023-03-14T10:47:53;1.43;;;1.27;;
64633;SDS011;51043;52.406;9.690;2023-03-14T10:50:27;1.67;;;1.23;;
64633;SDS011;51043;52.406;9.690;2023-03-14T10:52:56;1.40;;;1.20;;
64633;SDS011;51043;52.406;9.690;2023-03-14T10:55:28;1.37;;;1.20;;
64633;SDS011;51043;52.406;9.690;2023-03-14T10:58:19;1.93;;;1.40;;
64633;SDS011;51043;52.406;9.690;2023-03-14T11:00:54;1.13;;;1.00;;
64633;SDS011;51043;52.406;9.690;2023-03-14T11:03:24;2.73;;;1.60;;
64633;SDS011;51043;52.406;9.690;2023-03-14T11:06:05;2.60;;;1.60;;
64633;SDS011;51043;52.406;9.690;2023-03-14T11:11:18;1.60;;;1.50;;
64633;SDS011;51043;52.406;9.690;2023-03-14T11:13:52;3.57;;;1.70;;
64633;SDS011;51043;52.406;9.690;2023-03-14T11:19:38;1.80;;;1.30;;
64633;SDS011;51043;52.406;9.690;2023-03-14T11:22:18;1.47;;;1.00;;
64633;SDS011;51043;52.406;9.690;2023-03-14T11:24:55;1.20;;;1.00;;
64633;SDS011;51043;52.406;9.690;2023-03-14T11:27:48;1.60;;;1.10;;
64633;SDS011;51043;52.406;9.690;2023-03-14T11:30:53;2.13;;;1.20;;
64633;SDS011;51043;52.406;9.690;2023-03-14T11:33:39;1.53;;;1.30;;
64633;SDS011;51043;52.406;9.690;2023-03-14T11:36:11;1.60;;;1.40;;
64633;SDS011;51043;52.406;9.690;2023-03-14T11:38:48;2.37;;;1.83;;
64633;SDS011;51043;52.406;9.690;2023-03-14T11:43:59;3.00;;;2.00;;
64633;SDS011;51043;52.406;9.690;2023-03-14T11:46:32;3.63;;;2.00;;
64633;SDS011;51043;52.406;9.690;2023-03-14T11:49:06;3.10;;;1.57;;
64633;SDS011;51043;52.406;9.690;2023-03-14T11:51:40;3.07;;;1.70;;
64633;SDS011;51043;52.406;9.690;2023-03-14T11:54:20;2.87;;;1.60;;
64633;SDS011;51043;52.406;9.690;2023-03-14T11:56:58;2.13;;;1.87;;
64633;SDS011;51043;52.406;9.690;2023-03-14T12:07:58;1.90;;;1.20;;
64633;SDS011;51043;52.406;9.690;2023-03-14T12:10:37;0.70;;;0.70;;
64633;SDS011;51043;52.406;9.690;2023-03-14T12:13:36;0.80;;;0.80;;
64633;SDS011;51043;52.406;9.690;2023-03-14T12:16:24;0.97;;;0.97;;
64633;SDS011;51043;52.406;9.690;2023-03-14T12:18:51;0.73;;;0.73;;
64633;SDS011;51043;52.406;9.690;2023-03-14T12:21:19;0.90;;;0.83;;
64633;SDS011;51043;52.406;9.690;2023-03-14T12:23:51;1.67;;;1.03;;
64633;SDS011;51043;52.406;9.690;2023-03-14T12:26:26;1.07;;;1.00;;
64633;SDS011;51043;52.406;9.690;2023-03-14T12:29:16;2.20;;;1.40;;
64633;SDS011;51043;52.406;9.690;2023-03-14T12:31:47;1.10;;;0.90;;
64633;SDS011;51043;52.406;9.690;2023-03-14T12:42:41;3.67;;;1.00;;
64633;SDS011;51043;52.406;9.690;2023-03-14T12:48:05;2.27;;;1.30;;
64633;SDS011;51043;52.406;9.690;2023-03-14T12:50:55;2.30;;;1.27;;
64633;SDS011;51043;52.406;9.690;2023-03-14T12:56:21;4.47;;;1.67;;
64633;SDS011;51043;52.406;9.690;2023-03-14T13:01:58;6.37;;;2.03;;
64633;SDS011;51043;52.406;9.690;2023-03-14T13:04:34;4.00;;;1.67;;
64633;SDS011;51043;52.406;9.690;2023-03-14T13:07:10;5.43;;;1.70;;
64633;SDS011;51043;52.406;9.690;2023-03-14T13:12:51;5.80;;;1.87;;
64633;SDS011;51043;52.406;9.690;2023-03-14T13:15:41;10.03;;;2.53;;
64633;SDS011;51043;52.406;9.690;2023-03-14T13:18:11;8.97;;;2.53;;
64633;SDS011;51043;52.406;9.690;2023-03-14T13:21:06;6.07;;;2.57;;
64633;SDS011;51043;52.406;9.690;2023-03-14T13:23:37;6.93;;;2.07;;
64633;SDS011;51043;52.406;9.690;2023-03-14T13:26:14;8.30;;;1.77;;
64633;SDS011;51043;52.406;9.690;2023-03-14T13:28:41;10.83;;;2.10;;
64633;SDS011;51043;52.406;9.690;2023-03-14T13:31:20;13.60;;;3.10;;
64633;SDS011;51043;52.406;9.690;2023-03-14T13:33:58;8.50;;;1.97;;
64633;SDS011;51043;52.406;9.690;2023-03-14T13:36:31;8.50;;;2.23;;
64633;SDS011;51043;52.406;9.690;2023-03-14T13:38:59;5.50;;;1.77;;
64633;SDS011;51043;52.406;9.690;2023-03-14T13:41:28;9.90;;;2.37;;
64633;SDS011;51043;52.406;9.690;2023-03-14T13:44:01;9.50;;;2.60;;
64633;SDS011;51043;52.406;9.690;2023-03-14T13:46:32;11.50;;;2.27;;
64633;SDS011;51043;52.406;9.690;2023-03-14T13:49:02;11.23;;;2.40;;
64633;SDS011;51043;52.406;9.690;2023-03-14T13:51:31;9.03;;;2.30;;
64633;SDS011;51043;52.406;9.690;2023-03-14T13:54:11;13.37;;;2.80;;
64633;SDS011;51043;52.406;9.690;2023-03-14T13:56:44;10.47;;;2.57;;
64633;SDS011;51043;52.406;9.690;2023-03-14T13:59:24;11.00;;;2.97;;
64633;SDS011;51043;52.406;9.690;2023-03-14T14:01:53;13.47;;;2.90;;
64633;SDS011;51043;52.406;9.690;2023-03-14T14:04:22;14.63;;;3.37;;
64633;SDS011;51043;52.406;9.690;2023-03-14T14:06:55;18.67;;;8.00;;
64633;SDS011;51043;52.406;9.690;2023-03-14T14:09:25;14.43;;;3.53;;
64633;SDS011;51043;52.406;9.690;2023-03-14T14:11:55;12.90;;;3.70;;
64633;SDS011;51043;52.406;9.690;2023-03-14T14:17:31;6.30;;;2.10;;
64633;SDS011;51043;52.406;9.690;2023-03-14T14:20:06;10.57;;;3.33;;
64633;SDS011;51043;52.406;9.690;2023-03-14T14:22:40;20.17;;;4.53;;
64633;SDS011;51043;52.406;9.690;2023-03-14T14:25:12;13.73;;;3.70;;
64633;SDS011;51043;52.406;9.690;2023-03-14T14:27:46;9.73;;;3.23;;
64633;SDS011;51043;52.406;9.690;2023-03-14T14:32:48;12.47;;;3.20;;
64633;SDS011;51043;52.406;9.690;2023-03-14T14:37:50;20.73;;;4.00;;
64633;SDS011;51043;52.406;9.690;2023-03-14T14:40:19;8.30;;;2.67;;
64633;SDS011;51043;52.406;9.690;2023-03-14T14:43:11;17.27;;;4.00;;
64633;SDS011;51043;52.406;9.690;2023-03-14T14:45:42;12.30;;;3.30;;
64633;SDS011;51043;52.406;9.690;2023-03-14T14:48:10;12.03;;;3.00;;
64633;SDS011;51043;52.406;9.690;2023-03-14T14:50:49;10.43;;;2.80;;
64633;SDS011;51043;52.406;9.690;2023-03-14T14:55:55;10.60;;;3.53;;
64633;SDS011;51043;52.406;9.690;2023-03-14T14:58:33;15.37;;;2.77;;
64633;SDS011;51043;52.406;9.690;2023-03-14T15:01:16;10.60;;;2.23;;
64633;SDS011;51043;52.406;9.690;2023-03-14T15:03:46;8.70;;;2.47;;
64633;SDS011;51043;52.406;9.690;2023-03-14T15:06:16;24.97;;;3.17;;
64633;SDS011;51043;52.406;9.690;2023-03-14T15:08:44;12.17;;;2.77;;
64633;SDS011;51043;52.406;9.690;2023-03-14T15:11:16;16.63;;;3.00;;
64633;SDS011;51043;52.406;9.690;2023-03-14T15:13:45;10.70;;;2.40;;
64633;SDS011;51043;52.406;9.690;2023-03-14T15:16:12;7.83;;;2.80;;
64633;SDS011;51043;52.406;9.690;2023-03-14T15:18:41;11.20;;;4.00;;
64633;SDS011;51043;52.406;9.690;2023-03-14T15:21:12;15.80;;;3.43;;
64633;SDS011;51043;52.406;9.690;2023-03-14T15:23:39;11.23;;;3.20;;
64633;SDS011;51043;52.406;9.690;2023-03-14T15:26:13;10.70;;;3.07;;
64633;SDS011;51043;52.406;9.690;2023-03-14T15:28:43;11.87;;;2.80;;
64633;SDS011;51043;52.406;9.690;2023-03-14T15:31:12;12.73;;;3.07;;
64633;SDS011;51043;52.406;9.690;2023-03-14T15:33:41;7.90;;;2.83;;
64633;SDS011;51043;52.406;9.690;2023-03-14T15:38:51;11.23;;;3.10;;
64633;SDS011;51043;52.406;9.690;2023-03-14T15:41:19;10.43;;;3.20;;
64633;SDS011;51043;52.406;9.690;2023-03-14T15:43:47;13.57;;;3.13;;
64633;SDS011;51043;52.406;9.690;2023-03-14T15:46:14;16.97;;;3.50;;
64633;SDS011;51043;52.406;9.690;2023-03-14T15:48:44;9.73;;;3.20;;
64633;SDS011;51043;52.406;9.690;2023-03-14T15:51:11;19.37;;;3.23;;
64633;SDS011;51043;52.406;9.690;2023-03-14T15:53:38;7.80;;;2.50;;
64633;SDS011;51043;52.406;9.690;2023-03-14T15:56:06;10.53;;;2.50;;
64633;SDS011;51043;52.406;9.690;2023-03-14T15:58:36;18.10;;;3.30;;
64633;SDS011;51043;52.406;9.690;2023-03-14T16:01:07;7.90;;;2.70;;
64633;SDS011;51043;52.406;9.690;2023-03-14T16:03:37;9.97;;;2.53;;
64633;SDS011;51043;52.406;9.690;2023-03-14T16:06:04;11.40;;;2.90;;
64633;SDS011;51043;52.406;9.690;2023-03-14T16:08:31;14.23;;;2.67;;
64633;SDS011;51043;52.406;9.690;2023-03-14T16:10:59;11.23;;;2.80;;
64633;SDS011;51043;52.406;9.690;2023-03-14T16:13:26;7.90;;;2.10;;
64633;SDS011;51043;52.406;9.690;2023-03-14T16:15:54;9.63;;;2.13;;
64633;SDS011;51043;52.406;9.690;2023-03-14T16:18:27;10.70;;;2.90;;